sensor_id;sensor_type;location;lat;lon;timestamp;P1;durP1;ratioP1;P2;durP2;ratioP2
33900;SDS011;20193;49.810;6.418;2022-09-03T00:02:20;2.50;;;2.30;;
33900;SDS011;20193;49.810;6.418;2022-09-03T00:04:57;2.40;;;1.90;;
33900;SDS011;20193;49.810;6.418;2022-09-03T00:10:30;2.67;;;1.90;;
33900;SDS011;20193;49.810;6.418;2022-09-03T00:13:23;3.60;;;1.92;;
33900;SDS011;20193;49.810;6.418;2022-09-03T00:15:57;2.88;;;2.28;;
33900;SDS011;20193;49.810;6.418;2022-09-03T00:18:31;2.05;;;1.92;;
33900;SDS011;20193;49.810;6.418;2022-09-03T00:21:09;1.63;;;1.52;;
33900;SDS011;20193;49.810;6.418;2022-09-03T00:23:40;3.50;;;2.10;;
33900;SDS011;20193;49.810;6.418;2022-09-03T00:33:54;2.20;;;2.03;;
33900;SDS011;20193;49.810;6.418;2022-09-03T00:36:35;2.42;;;1.95;;
33900;SDS011;20193;49.810;6.418;2022-09-03T00:39:07;3.22;;;1.73;;
33900;SDS011;20193;49.810;6.418;2022-09-03T00:41:38;2.10;;;1.90;;
33900;SDS011;20193;49.810;6.418;2022-09-03T00:47:29;2.33;;;1.83;;
33900;SDS011;20193;49.810;6.418;2022-09-03T00:56:05;2.20;;;2.00;;
33900;SDS011;20193;49.810;6.418;2022-09-03T01:01:19;2.03;;;1.90;;
33900;SDS011;20193;49.810;6.418;2022-09-03T01:07:11;1.80;;;1.70;;
33900;SDS011;20193;49.810;6.418;2022-09-03T01:09:47;3.28;;;1.92;;
33900;SDS011;20193;49.810;6.418;2022-09-03T01:12:41;1.83;;;1.73;;
33900;SDS011;20193;49.810;6.418;2022-09-03T01:15:35;2.20;;;2.00;;
33900;SDS011;20193;49.810;6.418;2022-09-03T01:23:32;3.85;;;1.77;;
33900;SDS011;20193;49.810;6.418;2022-09-03T01:31:49;1.83;;;1.73;;
33900;SDS011;20193;49.810;6.418;2022-09-03T01:37:06;2.08;;;1.83;;
33900;SDS011;20193;49.810;6.418;2022-09-03T01:48:17;3.10;;;2.13;;
33900;SDS011;20193;49.810;6.418;2022-09-03T01:51:19;2.25;;;1.98;;
33900;SDS011;20193;49.810;6.418;2022-09-03T01:59:26;2.53;;;2.08;;
33900;SDS011;20193;49.810;6.418;2022-09-03T02:02:17;2.00;;;1.90;;
33900;SDS011;20193;49.810;6.418;2022-09-03T02:07:23;3.67;;;1.80;;
33900;SDS011;20193;49.810;6.418;2022-09-03T02:09:51;2.17;;;1.98;;
33900;SDS011;20193;49.810;6.418;2022-09-03T02:12:16;1.80;;;1.63;;
33900;SDS011;20193;49.810;6.418;2022-09-03T02:14:44;1.98;;;1.52;;
33900;SDS011;20193;49.810;6.418;2022-09-03T02:17:10;3.47;;;2.05;;
33900;SDS011;20193;49.810;6.418;2022-09-03T02:19:36;2.22;;;1.80;;
33900;SDS011;20193;49.810;6.418;2022-09-03T02:22:03;2.67;;;1.90;;
33900;SDS011;20193;49.810;6.418;2022-09-03T02:24:29;3.13;;;2.00;;
33900;SDS011;20193;49.810;6.418;2022-09-03T02:26:58;2.10;;;1.75;;
33900;SDS011;20193;49.810;6.418;2022-09-03T02:29:24;2.55;;;1.92;;
33900;SDS011;20193;49.810;6.418;2022-09-03T02:31:50;1.90;;;1.80;;
33900;SDS011;20193;49.810;6.418;2022-09-03T02:34:16;2.53;;;1.65;;
33900;SDS011;20193;49.810;6.418;2022-09-03T02:36:46;2.63;;;1.92;;
33900;SDS011;20193;49.810;6.418;2022-09-03T02:39:12;2.33;;;2.05;;
33900;SDS011;20193;49.810;6.418;2022-09-03T02:41:39;2.75;;;2.28;;
33900;SDS011;20193;49.810;6.418;2022-09-03T02:44:07;2.22;;;2.05;;
33900;SDS011;20193;49.810;6.418;2022-09-03T02:46:37;2.17;;;1.98;;
33900;SDS011;20193;49.810;6.418;2022-09-03T02:49:05;3.22;;;2.53;;
33900;SDS011;20193;49.810;6.418;2022-09-03T02:51:34;2.83;;;1.75;;
33900;SDS011;20193;49.810;6.418;2022-09-03T02:54:00;1.88;;;1.70;;
33900;SDS011;20193;49.810;6.418;2022-09-03T02:56:26;1.98;;;1.80;;
33900;SDS011;20193;49.810;6.418;2022-09-03T02:58:52;1.92;;;1.83;;
33900;SDS011;20193;49.810;6.418;2022-09-03T03:01:18;2.28;;;2.10;;
33900;SDS011;20193;49.810;6.418;2022-09-03T03:03:45;3.00;;;2.30;;
33900;SDS011;20193;49.810;6.418;2022-09-03T03:06:10;2.38;;;2.03;;
33900;SDS011;20193;49.810;6.418;2022-09-03T03:08:38;2.35;;;2.10;;
33900;SDS011;20193;49.810;6.418;2022-09-03T03:11:04;4.53;;;2.58;;
33900;SDS011;20193;49.810;6.418;2022-09-03T03:13:30;3.75;;;2.50;;
33900;SDS011;20193;49.810;6.418;2022-09-03T03:15:59;2.58;;;2.38;;
33900;SDS011;20193;49.810;6.418;2022-09-03T03:18:26;3.38;;;2.80;;
33900;SDS011;20193;49.810;6.418;2022-09-03T03:20:52;2.88;;;2.67;;
33900;SDS011;20193;49.810;6.418;2022-09-03T03:23:18;2.85;;;2.53;;
33900;SDS011;20193;49.810;6.418;2022-09-03T03:25:44;4.85;;;3.03;;
33900;SDS011;20193;49.810;6.418;2022-09-03T03:28:10;4.18;;;3.22;;
33900;SDS011;20193;49.810;6.418;2022-09-03T03:30:37;3.33;;;2.97;;
33900;SDS011;20193;49.810;6.418;2022-09-03T03:33:04;3.15;;;2.55;;
33900;SDS011;20193;49.810;6.418;2022-09-03T03:35:30;3.55;;;3.13;;
33900;SDS011;20193;49.810;6.418;2022-09-03T03:37:57;5.45;;;3.55;;
33900;SDS011;20193;49.810;6.418;2022-09-03T03:40:23;3.75;;;3.50;;
33900;SDS011;20193;49.810;6.418;2022-09-03T03:42:49;3.88;;;3.58;;
33900;SDS011;20193;49.810;6.418;2022-09-03T03:45:15;3.90;;;3.58;;
33900;SDS011;20193;49.810;6.418;2022-09-03T03:47:40;3.90;;;3.70;;
33900;SDS011;20193;49.810;6.418;2022-09-03T03:50:06;5.20;;;3.53;;
33900;SDS011;20193;49.810;6.418;2022-09-03T03:52:32;3.70;;;3.42;;
33900;SDS011;20193;49.810;6.418;2022-09-03T03:54:58;4.15;;;3.85;;
33900;SDS011;20193;49.810;6.418;2022-09-03T03:57:23;4.45;;;4.07;;
33900;SDS011;20193;49.810;6.418;2022-09-03T03:59:49;4.10;;;3.90;;
33900;SDS011;20193;49.810;6.418;2022-09-03T04:02:15;4.40;;;4.10;;
33900;SDS011;20193;49.810;6.418;2022-09-03T04:04:42;4.70;;;4.30;;
33900;SDS011;20193;49.810;6.418;2022-09-03T04:07:08;5.15;;;4.65;;
33900;SDS011;20193;49.810;6.418;2022-09-03T04:09:33;4.60;;;4.40;;
33900;SDS011;20193;49.810;6.418;2022-09-03T04:11:59;4.95;;;4.45;;
33900;SDS011;20193;49.810;6.418;2022-09-03T04:14:25;4.85;;;4.45;;
33900;SDS011;20193;49.810;6.418;2022-09-03T04:16:52;4.35;;;4.15;;
33900;SDS011;20193;49.810;6.418;2022-09-03T04:19:18;5.40;;;4.38;;
33900;SDS011;20193;49.810;6.418;2022-09-03T04:21:45;5.20;;;4.90;;
33900;SDS011;20193;49.810;6.418;2022-09-03T04:24:11;4.75;;;4.38;;
33900;SDS011;20193;49.810;6.418;2022-09-03T04:26:37;5.32;;;4.80;;
33900;SDS011;20193;49.810;6.418;2022-09-03T04:29:04;5.00;;;4.70;;
33900;SDS011;20193;49.810;6.418;2022-09-03T04:31:32;5.25;;;4.95;;
33900;SDS011;20193;49.810;6.418;2022-09-03T04:33:59;5.60;;;5.30;;
33900;SDS011;20193;49.810;6.418;2022-09-03T04:36:26;5.90;;;4.82;;
33900;SDS011;20193;49.810;6.418;2022-09-03T04:38:54;5.18;;;4.78;;
33900;SDS011;20193;49.810;6.418;2022-09-03T04:41:23;5.30;;;5.00;;
33900;SDS011;20193;49.810;6.418;2022-09-03T04:43:53;5.53;;;5.20;;
33900;SDS011;20193;49.810;6.418;2022-09-03T04:46:21;5.75;;;5.28;;
33900;SDS011;20193;49.810;6.418;2022-09-03T04:48:50;6.10;;;5.70;;
33900;SDS011;20193;49.810;6.418;2022-09-03T04:51:22;6.30;;;5.88;;
33900;SDS011;20193;49.810;6.418;2022-09-03T04:53:54;6.28;;;5.97;;
33900;SDS011;20193;49.810;6.418;2022-09-03T04:56:23;6.00;;;5.70;;
33900;SDS011;20193;49.810;6.418;2022-09-03T04:58:55;6.65;;;5.95;;
33900;SDS011;20193;49.810;6.418;2022-09-03T05:01:26;6.20;;;5.80;;
33900;SDS011;20193;49.810;6.418;2022-09-03T05:03:56;6.75;;;6.15;;
33900;SDS011;20193;49.810;6.418;2022-09-03T05:06:23;6.00;;;5.70;;
33900;SDS011;20193;49.810;6.418;2022-09-03T05:08:50;6.57;;;6.18;;
33900;SDS011;20193;49.810;6.418;2022-09-03T05:11:17;6.68;;;6.28;;
33900;SDS011;20193;49.810;6.418;2022-09-03T05:13:45;6.32;;;5.93;;
33900;SDS011;20193;49.810;6.418;2022-09-03T05:16:12;6.45;;;5.90;;
33900;SDS011;20193;49.810;6.418;2022-09-03T05:18:38;6.10;;;5.80;;
33900;SDS011;20193;49.810;6.418;2022-09-03T05:21:10;6.40;;;5.90;;
33900;SDS011;20193;49.810;6.418;2022-09-03T05:23:37;6.32;;;6.03;;
33900;SDS011;20193;49.810;6.418;2022-09-03T05:26:06;5.80;;;5.40;;
33900;SDS011;20193;49.810;6.418;2022-09-03T05:28:33;6.40;;;5.93;;
33900;SDS011;20193;49.810;6.418;2022-09-03T05:31:04;6.18;;;5.88;;
33900;SDS011;20193;49.810;6.418;2022-09-03T05:33:34;6.25;;;5.95;;
33900;SDS011;20193;49.810;6.418;2022-09-03T05:36:05;5.97;;;5.68;;
33900;SDS011;20193;49.810;6.418;2022-09-03T05:38:33;6.47;;;6.15;;
33900;SDS011;20193;49.810;6.418;2022-09-03T05:41:00;6.55;;;6.15;;
33900;SDS011;20193;49.810;6.418;2022-09-03T05:43:27;6.25;;;5.95;;
33900;SDS011;20193;49.810;6.418;2022-09-03T05:45:57;6.18;;;5.78;;
33900;SDS011;20193;49.810;6.418;2022-09-03T05:48:30;7.15;;;6.60;;
33900;SDS011;20193;49.810;6.418;2022-09-03T05:51:01;7.03;;;6.53;;
33900;SDS011;20193;49.810;6.418;2022-09-03T05:53:28;5.82;;;5.53;;
33900;SDS011;20193;49.810;6.418;2022-09-03T05:58:22;6.20;;;5.60;;
33900;SDS011;20193;49.810;6.418;2022-09-03T06:00:47;6.88;;;6.38;;
33900;SDS011;20193;49.810;6.418;2022-09-03T06:03:13;6.90;;;6.40;;
33900;SDS011;20193;49.810;6.418;2022-09-03T06:05:38;6.47;;;6.13;;
33900;SDS011;20193;49.810;6.418;2022-09-03T06:08:04;6.20;;;5.82;;
33900;SDS011;20193;49.810;6.418;2022-09-03T06:10:29;7.60;;;7.10;;
33900;SDS011;20193;49.810;6.418;2022-09-03T06:12:55;7.05;;;6.65;;
33900;SDS011;20193;49.810;6.418;2022-09-03T06:15:25;7.82;;;7.22;;
33900;SDS011;20193;49.810;6.418;2022-09-03T06:17:50;6.78;;;6.38;;
33900;SDS011;20193;49.810;6.418;2022-09-03T06:20:16;7.85;;;7.30;;
33900;SDS011;20193;49.810;6.418;2022-09-03T06:22:41;6.70;;;6.30;;
33900;SDS011;20193;49.810;6.418;2022-09-03T06:25:13;7.28;;;6.80;;
33900;SDS011;20193;49.810;6.418;2022-09-03T06:27:39;6.07;;;5.78;;
33900;SDS011;20193;49.810;6.418;2022-09-03T06:30:04;6.20;;;5.90;;
33900;SDS011;20193;49.810;6.418;2022-09-03T06:32:31;5.97;;;5.60;;
33900;SDS011;20193;49.810;6.418;2022-09-03T06:34:57;6.80;;;6.50;;
33900;SDS011;20193;49.810;6.418;2022-09-03T06:37:22;7.32;;;6.93;;
33900;SDS011;20193;49.810;6.418;2022-09-03T06:39:48;6.97;;;6.40;;
33900;SDS011;20193;49.810;6.418;2022-09-03T06:42:15;6.90;;;6.30;;
33900;SDS011;20193;49.810;6.418;2022-09-03T06:44:41;7.43;;;6.28;;
33900;SDS011;20193;49.810;6.418;2022-09-03T06:47:09;6.85;;;6.25;;
33900;SDS011;20193;49.810;6.418;2022-09-03T06:49:34;6.00;;;5.60;;
33900;SDS011;20193;49.810;6.418;2022-09-03T06:52:00;7.68;;;5.50;;
33900;SDS011;20193;49.810;6.418;2022-09-03T06:54:26;6.10;;;5.70;;
33900;SDS011;20193;49.810;6.418;2022-09-03T06:56:51;7.40;;;5.28;;
33900;SDS011;20193;49.810;6.418;2022-09-03T06:59:17;5.63;;;5.32;;
33900;SDS011;20193;49.810;6.418;2022-09-03T07:01:42;4.72;;;4.43;;
33900;SDS011;20193;49.810;6.418;2022-09-03T07:04:09;7.70;;;5.32;;
33900;SDS011;20193;49.810;6.418;2022-09-03T07:06:37;6.40;;;4.57;;
33900;SDS011;20193;49.810;6.418;2022-09-03T07:09:07;5.10;;;4.80;;
33900;SDS011;20193;49.810;6.418;2022-09-03T07:11:35;5.30;;;4.30;;
33900;SDS011;20193;49.810;6.418;2022-09-03T07:14:01;5.05;;;4.13;;
33900;SDS011;20193;49.810;6.418;2022-09-03T07:16:29;6.72;;;4.57;;
33900;SDS011;20193;49.810;6.418;2022-09-03T07:18:57;4.60;;;4.30;;
33900;SDS011;20193;49.810;6.418;2022-09-03T07:21:26;3.65;;;3.30;;
33900;SDS011;20193;49.810;6.418;2022-09-03T07:23:54;3.60;;;3.40;;
33900;SDS011;20193;49.810;6.418;2022-09-03T07:26:21;4.75;;;3.72;;
33900;SDS011;20193;49.810;6.418;2022-09-03T07:28:49;3.28;;;3.08;;
33900;SDS011;20193;49.810;6.418;2022-09-03T07:31:17;3.78;;;2.85;;
33900;SDS011;20193;49.810;6.418;2022-09-03T07:33:45;5.32;;;3.13;;
33900;SDS011;20193;49.810;6.418;2022-09-03T07:36:15;4.25;;;2.85;;
33900;SDS011;20193;49.810;6.418;2022-09-03T07:38:42;4.97;;;2.65;;
33900;SDS011;20193;49.810;6.418;2022-09-03T07:41:09;4.38;;;2.97;;
33900;SDS011;20193;49.810;6.418;2022-09-03T07:43:36;3.63;;;2.65;;
33900;SDS011;20193;49.810;6.418;2022-09-03T07:46:04;2.72;;;2.53;;
33900;SDS011;20193;49.810;6.418;2022-09-03T07:48:31;4.28;;;2.92;;
33900;SDS011;20193;49.810;6.418;2022-09-03T07:51:00;5.45;;;2.63;;
33900;SDS011;20193;49.810;6.418;2022-09-03T07:53:26;3.38;;;2.72;;
33900;SDS011;20193;49.810;6.418;2022-09-03T07:55:53;5.07;;;3.00;;
33900;SDS011;20193;49.810;6.418;2022-09-03T07:58:20;3.00;;;2.78;;
33900;SDS011;20193;49.810;6.418;2022-09-03T08:00:47;2.97;;;2.75;;
33900;SDS011;20193;49.810;6.418;2022-09-03T08:03:13;2.70;;;2.50;;
33900;SDS011;20193;49.810;6.418;2022-09-03T08:05:39;4.85;;;2.88;;
33900;SDS011;20193;49.810;6.418;2022-09-03T08:08:05;2.78;;;2.58;;
33900;SDS011;20193;49.810;6.418;2022-09-03T08:10:35;2.60;;;2.50;;
33900;SDS011;20193;49.810;6.418;2022-09-03T08:13:02;2.90;;;2.60;;
33900;SDS011;20193;49.810;6.418;2022-09-03T08:15:31;3.85;;;2.80;;
33900;SDS011;20193;49.810;6.418;2022-09-03T08:17:58;3.05;;;2.42;;
33900;SDS011;20193;49.810;6.418;2022-09-03T08:20:25;3.15;;;2.45;;
33900;SDS011;20193;49.810;6.418;2022-09-03T08:23:02;3.00;;;2.70;;
33900;SDS011;20193;49.810;6.418;2022-09-03T08:25:29;2.92;;;2.70;;
33900;SDS011;20193;49.810;6.418;2022-09-03T08:27:58;2.92;;;2.47;;
33900;SDS011;20193;49.810;6.418;2022-09-03T08:30:24;2.92;;;2.53;;
33900;SDS011;20193;49.810;6.418;2022-09-03T08:32:51;4.00;;;2.75;;
33900;SDS011;20193;49.810;6.418;2022-09-03T08:35:17;3.33;;;2.50;;
33900;SDS011;20193;49.810;6.418;2022-09-03T08:37:42;6.80;;;3.17;;
33900;SDS011;20193;49.810;6.418;2022-09-03T08:40:08;5.88;;;3.65;;
33900;SDS011;20193;49.810;6.418;2022-09-03T08:42:44;2.95;;;2.75;;
33900;SDS011;20193;49.810;6.418;2022-09-03T08:45:31;3.30;;;3.10;;
33900;SDS011;20193;49.810;6.418;2022-09-03T08:48:09;4.78;;;3.53;;
33900;SDS011;20193;49.810;6.418;2022-09-03T08:50:45;3.90;;;3.60;;
33900;SDS011;20193;49.810;6.418;2022-09-03T08:55:46;4.63;;;3.90;;
33900;SDS011;20193;49.810;6.418;2022-09-03T08:58:24;4.00;;;3.70;;
33900;SDS011;20193;49.810;6.418;2022-09-03T09:00:53;6.20;;;3.60;;
33900;SDS011;20193;49.810;6.418;2022-09-03T09:08:33;5.78;;;3.65;;
33900;SDS011;20193;49.810;6.418;2022-09-03T09:11:07;4.88;;;4.20;;
33900;SDS011;20193;49.810;6.418;2022-09-03T09:22:00;4.28;;;3.97;;
33900;SDS011;20193;49.810;6.418;2022-09-03T09:24:34;4.35;;;3.95;;
33900;SDS011;20193;49.810;6.418;2022-09-03T09:27:05;3.50;;;3.20;;
33900;SDS011;20193;49.810;6.418;2022-09-03T09:29:34;3.85;;;3.58;;
33900;SDS011;20193;49.810;6.418;2022-09-03T09:32:01;3.70;;;3.50;;
33900;SDS011;20193;49.810;6.418;2022-09-03T09:34:32;4.57;;;3.78;;
33900;SDS011;20193;49.810;6.418;2022-09-03T09:37:03;4.32;;;3.55;;
33900;SDS011;20193;49.810;6.418;2022-09-03T09:39:31;3.90;;;3.50;;
33900;SDS011;20193;49.810;6.418;2022-09-03T09:41:57;4.25;;;3.40;;
33900;SDS011;20193;49.810;6.418;2022-09-03T09:44:26;4.03;;;3.72;;
33900;SDS011;20193;49.810;6.418;2022-09-03T09:47:00;3.75;;;3.45;;
33900;SDS011;20193;49.810;6.418;2022-09-03T09:49:32;3.97;;;3.40;;
33900;SDS011;20193;49.810;6.418;2022-09-03T09:54:39;3.40;;;3.20;;
33900;SDS011;20193;49.810;6.418;2022-09-03T09:57:06;3.95;;;3.65;;
33900;SDS011;20193;49.810;6.418;2022-09-03T09:59:41;3.53;;;3.30;;
33900;SDS011;20193;49.810;6.418;2022-09-03T10:02:10;4.15;;;3.72;;
33900;SDS011;20193;49.810;6.418;2022-09-03T10:05:12;4.35;;;3.63;;
33900;SDS011;20193;49.810;6.418;2022-09-03T10:10:25;4.05;;;3.75;;
33900;SDS011;20193;49.810;6.418;2022-09-03T10:13:28;4.15;;;3.75;;
33900;SDS011;20193;49.810;6.418;2022-09-03T10:22:00;4.93;;;3.50;;
33900;SDS011;20193;49.810;6.418;2022-09-03T10:27:20;4.68;;;3.58;;
33900;SDS011;20193;49.810;6.418;2022-09-03T10:29:46;3.20;;;3.00;;
33900;SDS011;20193;49.810;6.418;2022-09-03T10:35:07;5.85;;;3.80;;
33900;SDS011;20193;49.810;6.418;2022-09-03T10:43:24;3.33;;;3.13;;
33900;SDS011;20193;49.810;6.418;2022-09-03T10:46:03;3.92;;;2.78;;
33900;SDS011;20193;49.810;6.418;2022-09-03T10:51:31;3.55;;;3.35;;
33900;SDS011;20193;49.810;6.418;2022-09-03T11:00:16;3.47;;;3.28;;
33900;SDS011;20193;49.810;6.418;2022-09-03T11:02:54;3.45;;;3.15;;
33900;SDS011;20193;49.810;6.418;2022-09-03T11:08:16;3.50;;;3.20;;
33900;SDS011;20193;49.810;6.418;2022-09-03T11:10:48;3.40;;;3.20;;
33900;SDS011;20193;49.810;6.418;2022-09-03T11:13:26;3.15;;;2.90;;
33900;SDS011;20193;49.810;6.418;2022-09-03T11:18:46;3.80;;;3.45;;
33900;SDS011;20193;49.810;6.418;2022-09-03T11:21:17;4.97;;;3.13;;
33900;SDS011;20193;49.810;6.418;2022-09-03T11:23:50;4.88;;;3.53;;
33900;SDS011;20193;49.810;6.418;2022-09-03T11:26:38;8.18;;;3.55;;
33900;SDS011;20193;49.810;6.418;2022-09-03T11:31:51;4.57;;;3.22;;
33900;SDS011;20193;49.810;6.418;2022-09-03T11:34:27;3.00;;;2.80;;
33900;SDS011;20193;49.810;6.418;2022-09-03T11:39:44;4.65;;;3.63;;
33900;SDS011;20193;49.810;6.418;2022-09-03T11:42:37;6.63;;;3.22;;
33900;SDS011;20193;49.810;6.418;2022-09-03T11:45:12;5.05;;;3.75;;
33900;SDS011;20193;49.810;6.418;2022-09-03T11:47:51;6.72;;;3.55;;
33900;SDS011;20193;49.810;6.418;2022-09-03T11:52:49;7.40;;;3.97;;
33900;SDS011;20193;49.810;6.418;2022-09-03T11:55:24;3.35;;;3.15;;
33900;SDS011;20193;49.810;6.418;2022-09-03T11:57:58;4.15;;;3.75;;
33900;SDS011;20193;49.810;6.418;2022-09-03T12:00:38;3.70;;;3.13;;
33900;SDS011;20193;49.810;6.418;2022-09-03T12:03:11;3.15;;;2.92;;
33900;SDS011;20193;49.810;6.418;2022-09-03T12:05:59;2.92;;;2.70;;
33900;SDS011;20193;49.810;6.418;2022-09-03T12:11:20;2.80;;;2.60;;
33900;SDS011;20193;49.810;6.418;2022-09-03T12:17:08;2.70;;;2.35;;
33900;SDS011;20193;49.810;6.418;2022-09-03T12:19:55;2.50;;;2.30;;
33900;SDS011;20193;49.810;6.418;2022-09-03T12:22:23;3.38;;;2.75;;
33900;SDS011;20193;49.810;6.418;2022-09-03T12:24:52;3.28;;;3.00;;
33900;SDS011;20193;49.810;6.418;2022-09-03T12:27:23;4.18;;;3.20;;
33900;SDS011;20193;49.810;6.418;2022-09-03T12:29:54;3.30;;;3.10;;
33900;SDS011;20193;49.810;6.418;2022-09-03T12:32:24;3.67;;;3.10;;
33900;SDS011;20193;49.810;6.418;2022-09-03T12:34:52;3.97;;;3.22;;
33900;SDS011;20193;49.810;6.418;2022-09-03T12:37:22;4.03;;;3.50;;
33900;SDS011;20193;49.810;6.418;2022-09-03T12:39:50;4.32;;;3.95;;
33900;SDS011;20193;49.810;6.418;2022-09-03T12:42:29;4.28;;;3.92;;
33900;SDS011;20193;49.810;6.418;2022-09-03T12:45:06;5.15;;;4.20;;
33900;SDS011;20193;49.810;6.418;2022-09-03T12:47:39;5.20;;;4.20;;
33900;SDS011;20193;49.810;6.418;2022-09-03T12:50:10;4.80;;;4.30;;
33900;SDS011;20193;49.810;6.418;2022-09-03T12:52:40;4.47;;;4.10;;
33900;SDS011;20193;49.810;6.418;2022-09-03T12:57:44;4.60;;;4.25;;
33900;SDS011;20193;49.810;6.418;2022-09-03T13:00:16;3.10;;;2.90;;
33900;SDS011;20193;49.810;6.418;2022-09-03T13:05:25;3.97;;;3.30;;
33900;SDS011;20193;49.810;6.418;2022-09-03T13:07:58;4.88;;;4.13;;
33900;SDS011;20193;49.810;6.418;2022-09-03T13:10:34;4.38;;;3.03;;
33900;SDS011;20193;49.810;6.418;2022-09-03T13:18:56;4.97;;;3.50;;
33900;SDS011;20193;49.810;6.418;2022-09-03T13:22:01;3.47;;;2.78;;
33900;SDS011;20193;49.810;6.418;2022-09-03T13:30:19;3.08;;;2.88;;
33900;SDS011;20193;49.810;6.418;2022-09-03T13:35:58;2.80;;;2.60;;
33900;SDS011;20193;49.810;6.418;2022-09-03T13:41:11;2.85;;;2.40;;
33900;SDS011;20193;49.810;6.418;2022-09-03T13:43:58;3.10;;;2.80;;
33900;SDS011;20193;49.810;6.418;2022-09-03T13:46:37;4.22;;;2.70;;
33900;SDS011;20193;49.810;6.418;2022-09-03T13:55:53;2.67;;;2.47;;
33900;SDS011;20193;49.810;6.418;2022-09-03T14:03:09;4.68;;;2.85;;
33900;SDS011;20193;49.810;6.418;2022-09-03T14:06:04;3.75;;;2.97;;
33900;SDS011;20193;49.810;6.418;2022-09-03T14:08:58;2.90;;;2.70;;
33900;SDS011;20193;49.810;6.418;2022-09-03T14:14:51;3.50;;;3.20;;
33900;SDS011;20193;49.810;6.418;2022-09-03T14:25:24;2.95;;;2.75;;
33900;SDS011;20193;49.810;6.418;2022-09-03T14:27:51;3.35;;;3.15;;
33900;SDS011;20193;49.810;6.418;2022-09-03T14:30:24;3.00;;;2.80;;
33900;SDS011;20193;49.810;6.418;2022-09-03T14:53:17;2.80;;;2.70;;
33900;SDS011;20193;49.810;6.418;2022-09-03T14:56:03;3.20;;;2.97;;
33900;SDS011;20193;49.810;6.418;2022-09-03T14:58:53;3.08;;;2.88;;
33900;SDS011;20193;49.810;6.418;2022-09-03T15:01:34;3.03;;;2.78;;
33900;SDS011;20193;49.810;6.418;2022-09-03T15:07:22;3.00;;;2.80;;
33900;SDS011;20193;49.810;6.418;2022-09-03T15:13:07;4.55;;;3.47;;
33900;SDS011;20193;49.810;6.418;2022-09-03T15:19:01;3.42;;;3.13;;
33900;SDS011;20193;49.810;6.418;2022-09-03T15:21:31;3.20;;;3.00;;
33900;SDS011;20193;49.810;6.418;2022-09-03T15:27:00;5.10;;;3.47;;
33900;SDS011;20193;49.810;6.418;2022-09-03T15:38:39;3.50;;;3.20;;
33900;SDS011;20193;49.810;6.418;2022-09-03T15:41:09;3.58;;;3.30;;
33900;SDS011;20193;49.810;6.418;2022-09-03T15:43:48;4.13;;;2.90;;
33900;SDS011;20193;49.810;6.418;2022-09-03T15:49:07;2.90;;;2.70;;
33900;SDS011;20193;49.810;6.418;2022-09-03T15:57:05;3.13;;;2.47;;
33900;SDS011;20193;49.810;6.418;2022-09-03T15:59:51;3.17;;;2.97;;
33900;SDS011;20193;49.810;6.418;2022-09-03T16:15:31;3.03;;;2.83;;
33900;SDS011;20193;49.810;6.418;2022-09-03T16:20:47;2.45;;;2.25;;
33900;SDS011;20193;49.810;6.418;2022-09-03T16:23:25;3.83;;;2.90;;
33900;SDS011;20193;49.810;6.418;2022-09-03T16:26:17;2.65;;;2.30;;
33900;SDS011;20193;49.810;6.418;2022-09-03T16:29:08;2.47;;;2.28;;
33900;SDS011;20193;49.810;6.418;2022-09-03T16:40:11;2.10;;;1.95;;
33900;SDS011;20193;49.810;6.418;2022-09-03T16:42:47;2.35;;;2.15;;
33900;SDS011;20193;49.810;6.418;2022-09-03T16:53:53;1.95;;;1.77;;
33900;SDS011;20193;49.810;6.418;2022-09-03T17:12:58;3.78;;;2.17;;
33900;SDS011;20193;49.810;6.418;2022-09-03T17:15:52;1.83;;;1.73;;
33900;SDS011;20193;49.810;6.418;2022-09-03T17:18:42;1.90;;;1.80;;
33900;SDS011;20193;49.810;6.418;2022-09-03T17:28:58;2.00;;;1.90;;
33900;SDS011;20193;49.810;6.418;2022-09-03T17:31:43;1.98;;;1.85;;
33900;SDS011;20193;49.810;6.418;2022-09-03T17:37:35;1.80;;;1.70;;
33900;SDS011;20193;49.810;6.418;2022-09-03T17:48:58;1.98;;;1.88;;
33900;SDS011;20193;49.810;6.418;2022-09-03T18:04:42;2.20;;;2.10;;
33900;SDS011;20193;49.810;6.418;2022-09-03T18:07:21;2.60;;;2.40;;
33900;SDS011;20193;49.810;6.418;2022-09-03T18:18:29;3.20;;;3.00;;
33900;SDS011;20193;49.810;6.418;2022-09-03T18:21:02;3.50;;;3.20;;
33900;SDS011;20193;49.810;6.418;2022-09-03T18:24:03;3.58;;;3.30;;
33900;SDS011;20193;49.810;6.418;2022-09-03T18:26:54;3.15;;;3.05;;
33900;SDS011;20193;49.810;6.418;2022-09-03T18:29:46;3.60;;;3.30;;
33900;SDS011;20193;49.810;6.418;2022-09-03T18:32:36;3.60;;;3.33;;
33900;SDS011;20193;49.810;6.418;2022-09-03T18:35:21;3.60;;;3.40;;
33900;SDS011;20193;49.810;6.418;2022-09-03T18:38:12;3.70;;;3.40;;
33900;SDS011;20193;49.810;6.418;2022-09-03T18:41:41;4.30;;;3.92;;
33900;SDS011;20193;49.810;6.418;2022-09-03T18:44:10;4.30;;;4.10;;
33900;SDS011;20193;49.810;6.418;2022-09-03T18:47:12;4.53;;;4.22;;
33900;SDS011;20193;49.810;6.418;2022-09-03T18:50:28;4.90;;;4.50;;
33900;SDS011;20193;49.810;6.418;2022-09-03T18:53:16;5.38;;;5.07;;
33900;SDS011;20193;49.810;6.418;2022-09-03T18:56:14;5.15;;;4.75;;
33900;SDS011;20193;49.810;6.418;2022-09-03T18:59:18;4.82;;;4.43;;
33900;SDS011;20193;49.810;6.418;2022-09-03T19:02:28;5.47;;;5.25;;
33900;SDS011;20193;49.810;6.418;2022-09-03T19:05:28;5.10;;;4.90;;
33900;SDS011;20193;49.810;6.418;2022-09-03T19:08:31;5.40;;;5.10;;
33900;SDS011;20193;49.810;6.418;2022-09-03T19:20:57;5.97;;;5.68;;
33900;SDS011;20193;49.810;6.418;2022-09-03T19:24:03;6.13;;;5.72;;
33900;SDS011;20193;49.810;6.418;2022-09-03T19:26:52;6.28;;;5.65;;
33900;SDS011;20193;49.810;6.418;2022-09-03T19:30:05;5.28;;;5.07;;
33900;SDS011;20193;49.810;6.418;2022-09-03T19:36:25;5.75;;;5.47;;
33900;SDS011;20193;49.810;6.418;2022-09-03T19:42:49;6.32;;;6.03;;
33900;SDS011;20193;49.810;6.418;2022-09-03T19:49:07;6.30;;;5.80;;
33900;SDS011;20193;49.810;6.418;2022-09-03T19:55:35;5.75;;;5.45;;
33900;SDS011;20193;49.810;6.418;2022-09-03T19:58:23;5.80;;;5.50;;
33900;SDS011;20193;49.810;6.418;2022-09-03T20:01:12;6.35;;;5.95;;
33900;SDS011;20193;49.810;6.418;2022-09-03T20:03:58;6.22;;;5.82;;
33900;SDS011;20193;49.810;6.418;2022-09-03T20:06:43;6.10;;;5.80;;
33900;SDS011;20193;49.810;6.418;2022-09-03T20:09:31;6.68;;;6.15;;
33900;SDS011;20193;49.810;6.418;2022-09-03T20:12:21;6.82;;;6.32;;
33900;SDS011;20193;49.810;6.418;2022-09-03T20:14:49;5.57;;;5.38;;
33900;SDS011;20193;49.810;6.418;2022-09-03T20:20:06;6.10;;;5.80;;
33900;SDS011;20193;49.810;6.418;2022-09-03T20:30:49;6.00;;;5.70;;
33900;SDS011;20193;49.810;6.418;2022-09-03T20:36:28;6.78;;;6.45;;
33900;SDS011;20193;49.810;6.418;2022-09-03T20:39:25;6.57;;;6.28;;
33900;SDS011;20193;49.810;6.418;2022-09-03T20:42:25;6.22;;;5.90;;
33900;SDS011;20193;49.810;6.418;2022-09-03T20:58:09;6.25;;;5.85;;
33900;SDS011;20193;49.810;6.418;2022-09-03T21:00:59;6.10;;;5.80;;
33900;SDS011;20193;49.810;6.418;2022-09-03T21:09:17;5.55;;;5.35;;
33900;SDS011;20193;49.810;6.418;2022-09-03T21:24:52;5.43;;;5.20;;
33900;SDS011;20193;49.810;6.418;2022-09-03T21:27:23;6.10;;;5.80;;
33900;SDS011;20193;49.810;6.418;2022-09-03T21:29:59;5.70;;;5.40;;
33900;SDS011;20193;49.810;6.418;2022-09-03T21:36:19;5.70;;;5.30;;
33900;SDS011;20193;49.810;6.418;2022-09-03T21:39:05;5.65;;;5.45;;
33900;SDS011;20193;49.810;6.418;2022-09-03T21:41:46;5.82;;;5.53;;
33900;SDS011;20193;49.810;6.418;2022-09-03T21:47:07;5.60;;;5.30;;
33900;SDS011;20193;49.810;6.418;2022-09-03T21:49:55;5.88;;;5.43;;
33900;SDS011;20193;49.810;6.418;2022-09-03T21:52:36;5.85;;;5.55;;
33900;SDS011;20193;49.810;6.418;2022-09-03T21:55:17;5.38;;;5.07;;
33900;SDS011;20193;49.810;6.418;2022-09-03T22:00:27;5.78;;;5.30;;